createdAt,value
2023-02-04T00:00:27.666Z,96.30
2023-02-04T00:02:58.385Z,96.30
2023-02-04T00:05:29.170Z,96.30
2023-02-04T00:07:59.915Z,96.30
2023-02-04T00:10:32.174Z,96.40
2023-02-04T00:13:03.299Z,96.50
2023-02-04T00:15:34.074Z,96.40
2023-02-04T00:18:05.074Z,96.90
2023-02-04T00:20:36.035Z,96.60
2023-02-04T00:23:06.759Z,96.60
2023-02-04T00:25:37.520Z,96.80
2023-02-04T00:28:08.266Z,96.90
2023-02-04T00:30:39.029Z,97.00
2023-02-04T00:33:10.049Z,97.10
2023-02-04T00:35:40.817Z,97.10
2023-02-04T00:38:11.532Z,97.20
2023-02-04T00:40:42.511Z,97.20
2023-02-04T00:43:13.180Z,97.20
2023-02-04T00:45:43.880Z,97.10
2023-02-04T00:48:14.539Z,97.10
2023-02-04T00:50:45.356Z,96.90
2023-02-04T00:53:17.881Z,96.70
2023-02-04T00:55:49.848Z,96.70
2023-02-04T00:58:21.152Z,96.60
2023-02-04T01:00:52.229Z,96.50
2023-02-04T01:03:23.346Z,96.40
2023-02-04T01:05:54.430Z,96.40
2023-02-04T01:08:26.252Z,96.30
2023-02-04T01:10:58.876Z,96.20
2023-02-04T01:13:49.643Z,96.10
2023-02-04T01:16:22.418Z,95.90
2023-02-04T01:18:54.426Z,95.90
2023-02-04T01:21:26.876Z,95.90
2023-02-04T01:23:58.022Z,95.80
2023-02-04T01:26:28.712Z,95.80
2023-02-04T01:28:59.681Z,95.80
2023-02-04T01:31:32.249Z,95.70
2023-02-04T01:34:04.686Z,95.70
2023-02-04T01:36:36.802Z,95.60
2023-02-04T01:39:07.647Z,95.60
2023-02-04T01:41:38.985Z,95.60
2023-02-04T01:44:13.100Z,95.50
2023-02-04T01:46:45.678Z,95.40
2023-02-04T01:49:17.383Z,95.40
2023-02-04T01:51:49.087Z,95.20
2023-02-04T01:54:22.003Z,95.20
2023-02-04T01:56:52.813Z,95.20
2023-02-04T01:59:25.468Z,95.20
2023-02-04T02:01:58.095Z,95.20
2023-02-04T02:04:36.807Z,95.20
2023-02-04T02:07:10.150Z,95.20
2023-02-04T02:09:41.563Z,95.10
2023-02-04T02:12:12.595Z,95.10
2023-02-04T02:14:43.271Z,95.00
2023-02-04T02:17:15.704Z,95.10
2023-02-04T02:22:34.972Z,95.20
2023-02-04T02:25:07.374Z,95.20
2023-02-04T02:27:38.550Z,95.20
2023-02-04T02:30:14.192Z,95.20
2023-02-04T02:32:52.096Z,95.20
2023-02-04T02:35:23.402Z,95.20
2023-02-04T02:37:58.279Z,95.10
2023-02-04T02:40:34.726Z,95.00
2023-02-04T02:43:06.753Z,94.90
2023-02-04T02:45:37.993Z,94.90
2023-02-04T02:48:08.792Z,95.00
2023-02-04T02:50:40.822Z,95.00
2023-02-04T02:53:16.492Z,94.90
2023-02-04T02:55:48.529Z,94.80
2023-02-04T02:58:27.716Z,94.60
2023-02-04T03:00:59.770Z,94.60
2023-02-04T03:03:34.965Z,94.40
2023-02-04T03:06:08.463Z,94.10
2023-02-04T03:08:41.287Z,94.20
2023-02-04T03:11:12.175Z,94.10
2023-02-04T03:13:44.021Z,94.00
2023-02-04T03:16:15.739Z,94.00
2023-02-04T03:18:47.132Z,93.90
2023-02-04T03:21:26.932Z,93.80
2023-02-04T03:23:58.277Z,93.80
2023-02-04T03:26:32.408Z,93.80
2023-02-04T03:29:03.403Z,93.90
2023-02-04T03:31:35.066Z,93.90
2023-02-04T03:34:05.904Z,93.70
2023-02-04T03:36:38.196Z,93.70
2023-02-04T03:39:09.181Z,93.70
2023-02-04T03:41:39.940Z,93.80
2023-02-04T03:44:11.051Z,94.00
2023-02-04T03:46:42.359Z,94.00
2023-02-04T03:49:13.771Z,93.90
2023-02-04T03:51:44.624Z,93.90
2023-02-04T03:54:16.820Z,94.00
2023-02-04T03:56:47.781Z,94.10
2023-02-04T03:59:18.430Z,94.10
2023-02-04T04:01:50.378Z,94.20
2023-02-04T04:04:24.407Z,94.20
2023-02-04T04:06:55.455Z,94.00
2023-02-04T04:09:27.671Z,93.70
2023-02-04T04:11:59.088Z,93.30
2023-02-04T04:14:29.763Z,93.30
2023-02-04T04:17:00.610Z,93.10
2023-02-04T04:19:33.942Z,93.00
2023-02-04T04:22:05.195Z,92.80
2023-02-04T04:24:36.027Z,92.70
2023-02-04T04:27:06.913Z,92.50
2023-02-04T04:29:40.359Z,92.10
2023-02-04T04:32:11.006Z,92.00
2023-02-04T04:34:42.653Z,91.40
2023-02-04T04:37:14.261Z,91.10
2023-02-04T04:39:44.936Z,91.00
2023-02-04T04:42:15.633Z,91.00
2023-02-04T04:44:46.754Z,91.10
2023-02-04T04:47:17.927Z,90.80
2023-02-04T04:49:49.122Z,90.70
2023-02-04T04:52:20.290Z,90.80
2023-02-04T04:54:51.759Z,91.00
2023-02-04T04:57:22.493Z,91.10
2023-02-04T04:59:53.593Z,91.10
2023-02-04T05:02:25.133Z,91.10
2023-02-04T05:04:56.155Z,91.00
2023-02-04T05:07:29.953Z,91.00
2023-02-04T05:10:01.044Z,90.90
2023-02-04T05:12:32.563Z,90.80
2023-02-04T05:15:04.081Z,91.00
2023-02-04T05:17:34.870Z,91.10
2023-02-04T05:20:06.187Z,91.00
2023-02-04T05:22:37.172Z,91.00
2023-02-04T05:25:08.612Z,90.80
2023-02-04T05:27:40.275Z,90.30
2023-02-04T05:30:12.731Z,90.00
2023-02-04T05:32:46.588Z,89.70
2023-02-04T05:35:17.525Z,90.00
2023-02-04T05:37:49.037Z,89.10
2023-02-04T05:40:20.834Z,89.10
2023-02-04T05:42:54.252Z,89.20
2023-02-04T05:45:24.974Z,89.00
2023-02-04T05:47:56.249Z,89.20
2023-02-04T05:50:34.883Z,89.00
2023-02-04T05:53:04.237Z,88.80
2023-02-04T05:55:34.977Z,88.50
2023-02-04T05:58:08.332Z,88.30
2023-02-04T06:00:40.198Z,88.20
2023-02-04T06:03:11.435Z,88.40
2023-02-04T06:05:42.513Z,88.00
2023-02-04T06:08:16.141Z,87.50
2023-02-04T06:10:46.804Z,87.20
2023-02-04T06:13:18.188Z,87.10
2023-02-04T06:15:48.838Z,87.10
2023-02-04T06:18:22.785Z,86.90
2023-02-04T06:20:59.721Z,87.20
2023-02-04T06:23:30.999Z,86.60
2023-02-04T06:26:01.716Z,86.70
2023-02-04T06:28:33.209Z,87.00
2023-02-04T06:31:04.124Z,86.90
2023-02-04T06:33:35.397Z,86.70
2023-02-04T06:36:07.213Z,86.70
2023-02-04T06:38:39.384Z,86.70
2023-02-04T06:41:11.371Z,86.70
2023-02-04T06:43:42.728Z,86.50
2023-02-04T06:46:13.689Z,86.20
2023-02-04T06:48:48.585Z,86.00
2023-02-04T06:51:21.792Z,85.90
2023-02-04T06:53:53.687Z,85.40
2023-02-04T06:56:24.980Z,85.50
2023-02-04T06:58:55.860Z,84.50
2023-02-04T07:01:26.722Z,85.20
2023-02-04T07:03:58.231Z,85.20
2023-02-04T07:06:29.024Z,84.30
2023-02-04T07:08:59.708Z,84.20
2023-02-04T07:11:31.903Z,84.20
2023-02-04T07:16:36.818Z,83.20
2023-02-04T07:19:08.013Z,83.60
2023-02-04T07:21:40.464Z,82.90
2023-02-04T07:24:11.662Z,82.50
2023-02-04T07:26:42.601Z,82.80
2023-02-04T07:29:20.705Z,82.20
2023-02-04T07:31:53.873Z,81.60
2023-02-04T07:34:29.903Z,81.90
2023-02-04T07:37:03.924Z,81.50
2023-02-04T07:39:34.765Z,81.70
2023-02-04T07:42:08.386Z,82.70
2023-02-04T07:44:39.033Z,82.30
2023-02-04T07:47:09.763Z,82.20
2023-02-04T07:49:43.323Z,82.60
2023-02-04T07:52:13.959Z,82.60
2023-02-04T07:54:44.711Z,83.20
2023-02-04T07:57:19.160Z,82.60
2023-02-04T07:59:50.480Z,82.60
2023-02-04T08:02:21.735Z,83.00
2023-02-04T08:04:53.568Z,83.10
2023-02-04T08:07:27.108Z,83.30
2023-02-04T08:09:57.768Z,83.40
2023-02-04T08:12:34.621Z,83.40
2023-02-04T08:15:07.739Z,83.70
2023-02-04T08:17:40.046Z,83.70
2023-02-04T08:20:12.180Z,83.70
2023-02-04T08:22:42.984Z,84.00
2023-02-04T08:25:15.201Z,84.10
2023-02-04T08:27:49.812Z,83.90
2023-02-04T08:30:20.817Z,84.00
2023-02-04T08:32:51.924Z,84.10
2023-02-04T08:35:22.814Z,84.10
2023-02-04T08:37:53.699Z,84.30
2023-02-04T08:40:27.404Z,84.40
2023-02-04T08:42:59.248Z,84.50
2023-02-04T08:45:36.253Z,84.30
2023-02-04T08:48:07.803Z,84.40
2023-02-04T08:50:39.936Z,84.30
2023-02-04T08:53:15.563Z,84.30
2023-02-04T08:55:45.714Z,85.40
2023-02-04T08:58:16.391Z,84.50
2023-02-04T09:00:47.133Z,84.70
2023-02-04T09:03:20.936Z,84.50
2023-02-04T09:06:01.970Z,84.40
2023-02-04T09:08:35.614Z,84.40
2023-02-04T09:11:06.718Z,84.60
2023-02-04T09:13:37.388Z,84.60
2023-02-04T09:16:11.882Z,84.50
2023-02-04T09:18:42.528Z,84.40
2023-02-04T09:21:17.508Z,84.40
2023-02-04T09:23:49.855Z,84.40
2023-02-04T09:26:21.096Z,84.40
2023-02-04T09:28:52.754Z,83.80
2023-02-04T09:31:26.768Z,83.90
2023-02-04T09:34:01.126Z,83.90
2023-02-04T09:36:38.882Z,84.10
2023-02-04T09:39:11.179Z,84.40
2023-02-04T09:41:44.706Z,84.40
2023-02-04T09:44:17.274Z,84.50
2023-02-04T09:46:56.888Z,84.20
2023-02-04T09:49:28.704Z,83.80
2023-02-04T09:51:59.983Z,84.10
2023-02-04T09:54:30.829Z,84.10
2023-02-04T09:57:01.642Z,84.20
2023-02-04T09:59:34.885Z,84.50
2023-02-04T10:02:15.970Z,84.50
2023-02-04T10:04:46.257Z,84.40
2023-02-04T10:07:21.944Z,84.30
2023-02-04T10:09:52.623Z,84.50
2023-02-04T10:12:24.109Z,84.30
2023-02-04T10:14:57.922Z,84.20
2023-02-04T10:17:29.267Z,85.10
2023-02-04T10:20:05.743Z,84.50
2023-02-04T10:22:37.405Z,84.50
2023-02-04T10:25:16.331Z,85.60
2023-02-04T10:28:00.755Z,84.50
2023-02-04T10:30:36.606Z,84.30
2023-02-04T10:33:28.560Z,84.40
2023-02-04T10:36:00.368Z,84.40
2023-02-04T10:38:31.029Z,84.50
2023-02-04T10:41:09.024Z,84.60
2023-02-04T10:43:40.363Z,84.60
2023-02-04T10:46:11.351Z,84.40
2023-02-04T10:51:34.447Z,84.40
2023-02-04T10:54:22.809Z,84.50
2023-02-04T10:56:53.511Z,84.80
2023-02-04T10:59:28.200Z,84.90
2023-02-04T11:02:01.030Z,85.10
2023-02-04T11:04:31.945Z,85.30
2023-02-04T11:07:02.737Z,85.50
2023-02-04T11:09:33.427Z,85.80
2023-02-04T11:12:04.770Z,86.00
2023-02-04T11:14:36.246Z,86.10
2023-02-04T11:17:07.057Z,86.30
2023-02-04T11:19:42.991Z,86.40
2023-02-04T11:22:26.376Z,86.60
2023-02-04T11:24:59.613Z,87.10
2023-02-04T11:27:42.539Z,87.50
2023-02-04T11:30:24.736Z,87.60
2023-02-04T11:33:10.233Z,87.70
2023-02-04T11:35:50.008Z,88.20
2023-02-04T11:38:30.496Z,88.40
2023-02-04T11:41:02.673Z,88.50
2023-02-04T11:43:38.946Z,88.60
2023-02-04T11:46:22.518Z,88.30
2023-02-04T11:48:57.943Z,88.60
2023-02-04T11:51:36.736Z,89.10
2023-02-04T11:54:08.803Z,89.20
2023-02-04T11:56:39.807Z,89.30
2023-02-04T11:59:13.075Z,90.00
2023-02-04T12:01:44.261Z,90.10
2023-02-04T12:04:26.130Z,90.30
2023-02-04T12:07:09.841Z,90.40
2023-02-04T12:09:43.064Z,90.60
2023-02-04T12:12:13.849Z,90.90
2023-02-04T12:14:45.016Z,91.40
2023-02-04T12:17:24.150Z,91.20
2023-02-04T12:19:54.928Z,91.30
2023-02-04T12:22:25.640Z,91.70
2023-02-04T12:24:56.741Z,91.90
2023-02-04T12:27:28.426Z,92.00
2023-02-04T12:29:59.777Z,92.20
2023-02-04T12:32:30.799Z,92.00
2023-02-04T12:35:01.537Z,92.00
2023-02-04T12:37:33.596Z,92.10
2023-02-04T12:40:04.920Z,92.10
2023-02-04T12:42:37.373Z,92.10
2023-02-04T12:45:08.444Z,92.20
2023-02-04T12:47:40.276Z,92.40
2023-02-04T12:50:12.927Z,92.40
2023-02-04T12:52:44.046Z,92.50
2023-02-04T12:55:15.082Z,92.70
2023-02-04T12:57:46.290Z,92.90
2023-02-04T13:00:19.414Z,93.10
2023-02-04T13:02:50.158Z,93.20
2023-02-04T13:05:21.356Z,93.40
2023-02-04T13:07:52.025Z,93.50
2023-02-04T13:10:25.161Z,93.50
2023-02-04T13:12:55.997Z,93.80
2023-02-04T13:15:34.818Z,93.90
2023-02-04T13:18:05.836Z,94.00
2023-02-04T13:20:36.584Z,94.20
2023-02-04T13:23:14.344Z,94.10
2023-02-04T13:25:50.617Z,94.20
2023-02-04T13:28:21.471Z,94.30
2023-02-04T13:30:52.263Z,94.40
2023-02-04T13:33:23.037Z,94.40
2023-02-04T13:35:53.848Z,94.50
2023-02-04T13:38:24.539Z,94.40
2023-02-04T13:40:55.360Z,94.50
2023-02-04T13:43:26.301Z,94.70
2023-02-04T13:45:58.458Z,94.60
2023-02-04T13:48:29.529Z,94.80
2023-02-04T13:51:00.203Z,94.80
2023-02-04T13:53:32.250Z,94.90
2023-02-04T13:56:03.074Z,94.80
2023-02-04T13:58:33.834Z,95.20
2023-02-04T14:01:04.678Z,94.80
2023-02-04T14:03:35.445Z,94.90
2023-02-04T14:06:06.502Z,94.90
2023-02-04T14:08:37.135Z,94.90
2023-02-04T14:11:08.368Z,94.90
2023-02-04T14:13:39.012Z,94.90
2023-02-04T14:16:10.473Z,94.80
2023-02-04T14:18:41.207Z,94.80
2023-02-04T14:21:11.868Z,94.80
2023-02-04T14:23:43.285Z,94.60
2023-02-04T14:26:13.988Z,94.60
2023-02-04T14:28:45.388Z,94.50
2023-02-04T14:31:16.282Z,94.40
2023-02-04T14:33:49.155Z,94.80
2023-02-04T14:36:19.163Z,94.50
2023-02-04T14:38:49.921Z,94.50
2023-02-04T14:41:22.046Z,94.60
2023-02-04T14:43:54.128Z,94.70
2023-02-04T14:46:25.046Z,94.80
2023-02-04T14:48:56.176Z,95.00
2023-02-04T14:51:27.326Z,95.00
2023-02-04T14:53:58.233Z,95.00
2023-02-04T14:56:28.960Z,95.40
2023-02-04T14:58:59.617Z,95.30
2023-02-04T15:01:31.699Z,95.80
2023-02-04T15:04:02.609Z,95.40
2023-02-04T15:06:33.308Z,95.50
2023-02-04T15:09:07.142Z,95.60
2023-02-04T15:11:39.840Z,95.70
2023-02-04T15:14:10.079Z,95.70
2023-02-04T15:16:41.749Z,95.70
2023-02-04T15:19:12.740Z,95.80
2023-02-04T15:21:43.408Z,95.70
2023-02-04T15:24:14.187Z,95.80
2023-02-04T15:26:44.917Z,95.80
2023-02-04T15:29:16.114Z,95.90
2023-02-04T15:31:46.963Z,95.90
2023-02-04T15:34:17.912Z,96.10
2023-02-04T15:36:50.000Z,96.10
2023-02-04T15:39:20.865Z,96.10
2023-02-04T15:41:51.518Z,96.10
2023-02-04T15:44:22.706Z,96.20
2023-02-04T15:46:53.528Z,96.10
2023-02-04T15:49:24.206Z,96.10
2023-02-04T15:51:54.891Z,96.10
2023-02-04T15:54:25.926Z,96.20
2023-02-04T15:56:56.550Z,96.20
2023-02-04T15:59:27.355Z,96.20
2023-02-04T16:01:58.019Z,96.30
2023-02-04T16:04:28.753Z,96.40
2023-02-04T16:07:00.492Z,96.20
2023-02-04T16:09:31.162Z,96.30
2023-02-04T16:12:01.847Z,96.30
2023-02-04T16:14:32.669Z,96.30
2023-02-04T16:17:03.767Z,96.40
2023-02-04T16:19:34.788Z,96.40
2023-02-04T16:22:07.469Z,96.50
2023-02-04T16:24:38.254Z,96.70
2023-02-04T16:27:08.927Z,96.60
2023-02-04T16:29:40.539Z,96.60
2023-02-04T16:32:11.408Z,96.60
2023-02-04T16:34:42.074Z,96.50
2023-02-04T16:37:12.853Z,96.60
2023-02-04T16:39:45.331Z,96.60
2023-02-04T16:42:16.070Z,96.60
2023-02-04T16:44:46.875Z,96.50
2023-02-04T16:47:17.590Z,96.50
2023-02-04T16:49:49.358Z,96.50
2023-02-04T16:52:20.427Z,96.50
2023-02-04T16:54:51.098Z,96.50
2023-02-04T16:57:21.926Z,96.30
2023-02-04T16:59:52.671Z,96.30
2023-02-04T17:02:23.405Z,96.40
2023-02-04T17:04:54.254Z,96.40
2023-02-04T17:07:24.952Z,96.50
2023-02-04T17:09:55.708Z,96.60
2023-02-04T17:12:26.382Z,96.70
2023-02-04T17:14:57.035Z,96.80
2023-02-04T17:17:27.807Z,96.90
2023-02-04T17:19:58.500Z,97.00
2023-02-04T17:22:29.239Z,97.20
2023-02-04T17:24:59.957Z,97.30
2023-02-04T17:27:30.633Z,97.40
2023-02-04T17:30:01.632Z,97.50
2023-02-04T17:32:33.094Z,97.70
2023-02-04T17:35:03.846Z,97.80
2023-02-04T17:37:34.711Z,97.90
2023-02-04T17:40:06.019Z,98.00
2023-02-04T17:42:37.032Z,98.10
2023-02-04T17:45:08.789Z,98.10
2023-02-04T17:47:40.576Z,98.20
2023-02-04T17:50:13.131Z,98.40
2023-02-04T17:52:43.789Z,98.40
2023-02-04T17:55:29.864Z,98.50
2023-02-04T17:58:06.316Z,98.40
2023-02-04T18:00:37.114Z,98.50
2023-02-04T18:03:09.637Z,98.50
2023-02-04T18:05:42.424Z,98.40
2023-02-04T18:08:27.281Z,98.60
2023-02-04T18:10:58.665Z,98.60
2023-02-04T18:13:35.470Z,98.70
2023-02-04T18:16:06.328Z,98.70
2023-02-04T18:18:39.178Z,98.80
2023-02-04T18:21:24.496Z,98.90
2023-02-04T18:24:06.643Z,98.80
2023-02-04T18:26:38.654Z,98.80
2023-02-04T18:29:36.072Z,98.80
2023-02-04T18:32:41.109Z,98.90
2023-02-04T18:35:29.440Z,98.90
2023-02-04T18:38:00.116Z,99.00
2023-02-04T18:40:35.161Z,98.90
2023-02-04T18:43:14.396Z,98.90
2023-02-04T18:45:45.162Z,98.90
2023-02-04T18:48:26.777Z,98.90
2023-02-04T18:50:57.751Z,98.90
2023-02-04T18:53:30.339Z,98.90
2023-02-04T18:56:03.198Z,98.90
2023-02-04T18:58:40.114Z,98.90
2023-02-04T19:01:18.182Z,99.30
2023-02-04T19:04:00.516Z,98.90
2023-02-04T19:06:33.806Z,98.90
2023-02-04T19:09:15.907Z,99.30
2023-02-04T19:11:52.726Z,98.90
2023-02-04T19:14:41.559Z,98.80
2023-02-04T19:17:20.844Z,98.80
2023-02-04T19:19:59.568Z,98.90
2023-02-04T19:22:41.644Z,98.80
2023-02-04T19:25:23.969Z,98.90
2023-02-04T19:27:57.176Z,98.80
2023-02-04T19:30:36.251Z,98.80
2023-02-04T19:33:18.104Z,98.70
2023-02-04T19:35:50.267Z,98.80
2023-02-04T19:38:32.531Z,98.70
2023-02-04T19:41:03.293Z,98.70
2023-02-04T19:43:38.924Z,98.70
2023-02-04T19:46:25.142Z,98.80
2023-02-04T19:48:55.839Z,98.70
2023-02-04T19:51:31.781Z,98.60
2023-02-04T19:54:24.020Z,98.60
2023-02-04T19:56:56.858Z,98.70
2023-02-04T19:59:30.068Z,98.70
2023-02-04T20:02:12.156Z,98.70
2023-02-04T20:04:47.896Z,98.70
2023-02-04T20:07:29.353Z,98.70
2023-02-04T20:10:11.624Z,98.70
2023-02-04T20:12:42.401Z,98.70
2023-02-04T20:15:21.280Z,98.80
2023-02-04T20:17:53.153Z,98.70
2023-02-04T20:20:32.076Z,98.70
2023-02-04T20:23:24.393Z,98.70
2023-02-04T20:25:55.371Z,98.70
2023-02-04T20:28:29.962Z,98.70
2023-02-04T20:31:02.189Z,98.60
2023-02-04T20:33:35.723Z,98.70
2023-02-04T20:36:29.880Z,98.60
2023-02-04T20:39:28.504Z,98.60
2023-02-04T20:42:18.596Z,98.70
2023-02-04T20:44:49.252Z,98.80
2023-02-04T20:47:26.428Z,98.80
2023-02-04T20:49:59.252Z,98.70
2023-02-04T20:52:51.538Z,98.70
2023-02-04T20:55:34.244Z,98.80
2023-02-04T20:58:19.858Z,98.80
2023-02-04T21:00:53.475Z,98.90
2023-02-04T21:03:29.996Z,99.00
2023-02-04T21:06:02.004Z,99.10
2023-02-04T21:08:41.395Z,99.40
2023-02-04T21:11:12.157Z,99.60
2023-02-04T21:13:42.918Z,99.90
2023-02-04T21:16:13.644Z,99.90
2023-02-04T21:18:44.343Z,99.90
2023-02-04T21:21:17.694Z,99.90
2023-02-04T21:23:48.274Z,99.90
2023-02-04T21:26:18.958Z,99.90
2023-02-04T21:28:49.726Z,99.90
2023-02-04T21:31:20.688Z,99.90
2023-02-04T21:33:51.705Z,99.90
2023-02-04T21:36:23.885Z,99.90
2023-02-04T21:38:54.757Z,99.90
2023-02-04T21:41:25.621Z,99.90
2023-02-04T21:43:56.309Z,99.90
2023-02-04T21:46:27.757Z,99.90
2023-02-04T21:48:59.069Z,99.90
2023-02-04T21:51:29.798Z,99.90
2023-02-04T21:54:01.100Z,99.90
2023-02-04T21:56:31.732Z,99.90
2023-02-04T21:59:02.386Z,99.90
2023-02-04T22:01:33.123Z,99.90
2023-02-04T22:04:03.948Z,99.90
2023-02-04T22:06:34.642Z,99.90
2023-02-04T22:09:05.311Z,99.90
2023-02-04T22:11:35.962Z,99.90
2023-02-04T22:14:06.695Z,99.90
2023-02-04T22:16:37.415Z,99.90
2023-02-04T22:19:08.091Z,99.90
2023-02-04T22:21:39.387Z,99.90
2023-02-04T22:24:10.050Z,99.90
2023-02-04T22:26:40.716Z,99.90
2023-02-04T22:29:11.383Z,99.90
2023-02-04T22:31:42.094Z,99.90
2023-02-04T22:34:12.848Z,99.90
2023-02-04T22:36:43.524Z,99.90
2023-02-04T22:39:14.282Z,99.90
2023-02-04T22:41:44.997Z,99.90
2023-02-04T22:44:15.751Z,99.90
2023-02-04T22:46:47.530Z,99.90
2023-02-04T22:49:18.470Z,99.90
2023-02-04T22:51:49.138Z,99.90
2023-02-04T22:54:19.804Z,99.90
2023-02-04T22:56:50.456Z,99.90
2023-02-04T22:59:21.194Z,99.90
2023-02-04T23:01:51.912Z,99.90
2023-02-04T23:04:22.649Z,99.90
2023-02-04T23:06:54.298Z,99.90
2023-02-04T23:09:25.478Z,99.90
2023-02-04T23:11:57.505Z,99.90
2023-02-04T23:14:28.172Z,99.90
2023-02-04T23:16:58.840Z,99.90
2023-02-04T23:19:29.528Z,99.90
2023-02-04T23:22:00.189Z,99.90
2023-02-04T23:24:31.156Z,99.90
2023-02-04T23:27:01.887Z,99.90
2023-02-04T23:29:34.670Z,99.90
2023-02-04T23:32:06.029Z,99.90
2023-02-04T23:34:36.734Z,99.90
2023-02-04T23:37:07.868Z,99.90
2023-02-04T23:39:38.579Z,99.90
2023-02-04T23:42:09.373Z,99.90
2023-02-04T23:44:40.015Z,99.90
2023-02-04T23:47:10.813Z,99.90
2023-02-04T23:49:41.483Z,99.90
2023-02-04T23:52:12.157Z,99.90
2023-02-04T23:54:43.045Z,99.90
2023-02-04T23:57:14.456Z,99.90
2023-02-04T23:59:45.169Z,99.90
